createdAt,value
2022-12-05T00:01:35.209Z,36.30
2022-12-05T00:04:04.733Z,37.88
2022-12-05T00:06:33.196Z,32.58
2022-12-05T00:08:59.950Z,35.78
2022-12-05T00:11:29.517Z,34.30
2022-12-05T00:13:57.973Z,38.78
2022-12-05T00:16:26.512Z,37.88
2022-12-05T00:18:53.733Z,34.92
2022-12-05T00:21:22.932Z,38.38
2022-12-05T00:23:50.422Z,39.88
2022-12-05T00:26:17.056Z,34.67
2022-12-05T00:28:43.796Z,36.13
2022-12-05T00:31:22.046Z,33.40
2022-12-05T00:33:49.358Z,31.70
2022-12-05T00:36:20.180Z,40.38
2022-12-05T00:38:47.071Z,38.17
2022-12-05T00:41:19.570Z,36.50
2022-12-05T00:43:46.636Z,32.78
2022-12-05T00:46:17.723Z,38.88
2022-12-05T00:48:45.101Z,33.28
2022-12-05T00:51:14.852Z,38.58
2022-12-05T00:53:42.175Z,30.42
2022-12-05T00:56:21.111Z,33.00
2022-12-05T00:58:48.798Z,33.00
2022-12-05T01:01:26.761Z,38.55
2022-12-05T01:03:55.292Z,35.97
2022-12-05T01:06:22.456Z,35.70
2022-12-05T01:08:49.295Z,35.25
2022-12-05T01:11:17.413Z,33.25
2022-12-05T01:13:44.533Z,35.90
2022-12-05T01:16:19.437Z,35.33
2022-12-05T01:18:46.600Z,34.85
2022-12-05T01:21:13.020Z,34.95
2022-12-05T01:23:39.612Z,33.67
2022-12-05T01:26:08.616Z,32.38
2022-12-05T01:28:36.328Z,38.65
2022-12-05T01:31:08.184Z,37.72
2022-12-05T01:33:35.377Z,34.65
2022-12-05T01:36:03.281Z,35.10
2022-12-05T01:38:30.067Z,36.95
2022-12-05T01:41:04.542Z,32.33
2022-12-05T01:43:31.675Z,36.45
2022-12-05T01:45:58.383Z,33.92
2022-12-05T01:48:30.771Z,32.63
2022-12-05T01:50:59.093Z,33.28
2022-12-05T01:53:26.445Z,32.30
2022-12-05T01:55:54.537Z,36.03
2022-12-05T01:58:22.197Z,32.72
2022-12-05T02:00:48.715Z,33.08
2022-12-05T02:03:19.131Z,35.63
2022-12-05T02:05:49.108Z,37.00
2022-12-05T02:08:16.028Z,33.30
2022-12-05T02:10:47.531Z,35.17
2022-12-05T02:13:49.517Z,36.83
2022-12-05T02:16:28.406Z,31.98
2022-12-05T02:19:32.697Z,28.73
2022-12-05T02:22:16.458Z,32.70
2022-12-05T02:24:51.557Z,31.15
2022-12-05T02:27:41.599Z,33.20
2022-12-05T02:30:31.415Z,29.33
2022-12-05T02:33:15.086Z,34.05
2022-12-05T02:36:04.566Z,32.72
2022-12-05T02:38:52.300Z,33.00
2022-12-05T02:41:50.990Z,31.05
2022-12-05T02:44:32.089Z,31.75
2022-12-05T02:47:00.121Z,36.08
2022-12-05T02:49:31.726Z,33.03
2022-12-05T02:52:01.442Z,35.78
2022-12-05T02:54:31.966Z,34.20
2022-12-05T02:57:00.037Z,31.42
2022-12-05T02:59:26.559Z,33.10
2022-12-05T03:01:53.137Z,34.35
2022-12-05T03:04:22.806Z,34.40
2022-12-05T03:06:54.362Z,31.48
2022-12-05T03:09:25.853Z,28.50
2022-12-05T03:11:56.233Z,32.28
2022-12-05T03:14:26.922Z,29.92
2022-12-05T03:16:57.948Z,31.38
2022-12-05T03:19:30.233Z,31.42
2022-12-05T03:22:02.933Z,32.38
2022-12-05T03:24:30.791Z,36.67
2022-12-05T03:27:18.329Z,34.63
2022-12-05T03:29:54.862Z,35.00
2022-12-05T03:32:30.604Z,30.15
2022-12-05T03:35:22.023Z,33.05
2022-12-05T03:38:08.374Z,36.15
2022-12-05T03:40:51.491Z,35.05
2022-12-05T03:43:25.362Z,29.75
2022-12-05T03:46:01.039Z,31.40
2022-12-05T03:48:37.432Z,40.10
2022-12-05T03:51:08.168Z,34.30
2022-12-05T03:53:59.332Z,32.05
2022-12-05T03:56:35.139Z,29.60
2022-12-05T03:59:16.366Z,28.17
2022-12-05T04:01:45.236Z,33.85
2022-12-05T04:04:17.043Z,30.15
2022-12-05T04:06:48.401Z,31.95
2022-12-05T04:09:20.525Z,26.13
2022-12-05T04:11:55.120Z,35.20
2022-12-05T04:14:35.409Z,31.52
2022-12-05T04:17:30.957Z,29.70
2022-12-05T04:20:22.748Z,28.05
2022-12-05T04:22:49.573Z,32.10
2022-12-05T04:25:33.054Z,31.98
2022-12-05T04:28:02.581Z,31.15
2022-12-05T04:30:43.471Z,35.65
2022-12-05T04:33:31.698Z,34.67
2022-12-05T04:36:17.191Z,32.80
2022-12-05T04:38:51.567Z,36.72
2022-12-05T04:41:24.296Z,32.58
2022-12-05T04:43:54.276Z,32.13
2022-12-05T04:46:22.573Z,36.75
2022-12-05T04:48:58.109Z,35.92
2022-12-05T04:51:28.470Z,32.22
2022-12-05T04:53:59.864Z,34.33
2022-12-05T04:56:32.642Z,34.42
2022-12-05T04:58:59.486Z,31.98
2022-12-05T05:01:33.514Z,31.70
2022-12-05T05:04:11.294Z,32.13
2022-12-05T05:06:41.962Z,34.58
2022-12-05T05:09:10.111Z,31.92
2022-12-05T05:11:37.531Z,32.25
2022-12-05T05:14:04.574Z,35.13
2022-12-05T05:16:39.600Z,31.63
2022-12-05T05:19:07.634Z,36.65
2022-12-05T05:21:36.532Z,35.42
2022-12-05T05:24:03.989Z,36.03
2022-12-05T05:26:33.196Z,33.10
2022-12-05T05:29:00.089Z,33.97
2022-12-05T05:31:26.632Z,35.55
2022-12-05T05:33:55.925Z,31.02
2022-12-05T05:36:24.160Z,32.75
2022-12-05T05:38:56.162Z,34.15
2022-12-05T05:41:33.043Z,29.75
2022-12-05T05:43:59.817Z,32.13
2022-12-05T05:46:29.610Z,33.72
2022-12-05T05:48:56.062Z,31.17
2022-12-05T05:51:25.675Z,30.70
2022-12-05T05:53:52.131Z,30.63
2022-12-05T05:56:22.017Z,29.52
2022-12-05T05:58:54.806Z,32.05
2022-12-05T06:01:21.672Z,29.33
2022-12-05T06:03:50.450Z,26.73
2022-12-05T06:06:17.828Z,29.45
2022-12-05T06:08:44.968Z,27.33
2022-12-05T06:11:14.164Z,31.85
2022-12-05T06:13:41.003Z,28.73
2022-12-05T06:16:09.517Z,27.65
2022-12-05T06:18:36.286Z,27.73
2022-12-05T06:21:03.906Z,26.88
2022-12-05T06:23:31.256Z,28.20
2022-12-05T06:25:57.749Z,26.83
2022-12-05T06:28:26.323Z,25.98
2022-12-05T06:30:52.961Z,26.70
2022-12-05T06:33:19.852Z,26.70
2022-12-05T06:35:46.685Z,26.40
2022-12-05T06:38:13.264Z,28.90
2022-12-05T06:40:41.576Z,27.20
2022-12-05T06:43:08.097Z,28.83
2022-12-05T06:45:34.504Z,26.67
2022-12-05T06:48:00.968Z,29.40
2022-12-05T06:50:27.344Z,28.60
2022-12-05T06:52:53.820Z,26.95
2022-12-05T06:55:20.168Z,31.73
2022-12-05T06:57:46.596Z,28.15
2022-12-05T07:00:32.406Z,27.30
2022-12-05T07:02:58.862Z,28.08
2022-12-05T07:05:25.249Z,26.73
2022-12-05T07:07:51.785Z,23.75
2022-12-05T07:10:18.465Z,28.30
2022-12-05T07:12:45.073Z,27.50
2022-12-05T07:15:11.644Z,26.98
2022-12-05T07:17:38.890Z,24.25
2022-12-05T07:20:07.350Z,28.50
2022-12-05T07:22:37.017Z,24.27
2022-12-05T07:25:04.497Z,25.45
2022-12-05T07:27:31.033Z,27.40
2022-12-05T07:29:57.901Z,26.52
2022-12-05T07:32:24.535Z,24.10
2022-12-05T07:34:55.026Z,25.85
2022-12-05T07:37:22.230Z,25.02
2022-12-05T07:39:48.592Z,29.13
2022-12-05T07:42:15.086Z,23.05
2022-12-05T07:44:41.535Z,25.58
2022-12-05T07:47:08.001Z,26.15
2022-12-05T07:49:34.365Z,24.17
2022-12-05T07:52:00.808Z,26.67
2022-12-05T07:54:27.283Z,26.77
2022-12-05T07:56:53.761Z,29.42
2022-12-05T07:59:20.369Z,25.20
2022-12-05T08:01:46.847Z,26.95
2022-12-05T08:04:15.518Z,24.15
2022-12-05T08:06:42.397Z,25.27
2022-12-05T08:09:08.778Z,25.48
2022-12-05T08:11:36.172Z,24.92
2022-12-05T08:14:04.546Z,25.10
2022-12-05T08:16:32.291Z,27.65
2022-12-05T08:19:01.503Z,27.40
2022-12-05T08:21:28.630Z,27.15
2022-12-05T08:23:55.199Z,27.55
2022-12-05T08:26:27.367Z,29.65
2022-12-05T08:28:57.230Z,28.92
2022-12-05T08:31:25.355Z,28.23
2022-12-05T08:33:58.664Z,22.67
2022-12-05T08:36:27.345Z,23.33
2022-12-05T08:39:05.292Z,26.65
2022-12-05T08:41:31.985Z,25.52
2022-12-05T08:44:03.148Z,28.67
2022-12-05T08:46:31.237Z,24.05
2022-12-05T08:48:57.732Z,23.63
2022-12-05T08:51:24.096Z,25.30
2022-12-05T08:53:53.536Z,28.23
2022-12-05T08:56:25.095Z,25.30
2022-12-05T08:58:53.182Z,25.55
2022-12-05T09:01:21.709Z,24.17
2022-12-05T09:03:49.032Z,22.83
2022-12-05T09:06:18.925Z,26.20
2022-12-05T09:08:46.215Z,21.30
2022-12-05T09:11:17.890Z,23.40
2022-12-05T09:13:45.245Z,24.58
2022-12-05T09:16:15.254Z,23.55
2022-12-05T09:18:42.692Z,22.05
2022-12-05T09:21:14.585Z,25.42
2022-12-05T09:23:41.289Z,23.70
2022-12-05T09:26:12.421Z,23.85
2022-12-05T09:28:39.649Z,25.67
2022-12-05T09:31:15.988Z,22.73
2022-12-05T09:33:42.809Z,22.77
2022-12-05T09:36:13.808Z,19.95
2022-12-05T09:38:40.654Z,26.17
2022-12-05T09:41:43.793Z,20.17
2022-12-05T09:44:25.502Z,21.40
2022-12-05T09:47:19.776Z,20.30
2022-12-05T09:49:50.782Z,19.73
2022-12-05T09:52:27.602Z,19.80
2022-12-05T09:54:55.179Z,19.08
2022-12-05T09:57:33.995Z,17.50
2022-12-05T10:00:03.537Z,18.45
2022-12-05T10:02:44.143Z,22.55
2022-12-05T10:05:22.915Z,18.83
2022-12-05T10:08:26.189Z,19.30
2022-12-05T10:11:01.332Z,20.92
2022-12-05T10:13:41.742Z,17.98
2022-12-05T10:16:14.104Z,17.00
2022-12-05T10:18:59.235Z,19.73
2022-12-05T10:21:42.601Z,17.23
2022-12-05T10:24:16.779Z,15.80
2022-12-05T10:26:51.427Z,14.90
2022-12-05T10:29:17.885Z,15.90
2022-12-05T10:31:47.004Z,15.80
2022-12-05T10:34:40.693Z,15.07
2022-12-05T10:37:23.604Z,16.60
2022-12-05T10:39:51.978Z,14.32
2022-12-05T10:42:32.778Z,16.02
2022-12-05T10:45:03.807Z,16.48
2022-12-05T10:47:32.090Z,14.77
2022-12-05T10:50:03.118Z,13.70
2022-12-05T10:52:30.878Z,15.90
2022-12-05T10:55:03.123Z,14.00
2022-12-05T10:57:30.341Z,13.20
2022-12-05T10:59:57.716Z,14.23
2022-12-05T11:02:28.608Z,15.40
2022-12-05T11:04:56.063Z,15.05
2022-12-05T11:07:31.593Z,15.85
2022-12-05T11:10:00.133Z,17.25
2022-12-05T11:12:38.346Z,15.18
2022-12-05T11:15:16.028Z,14.77
2022-12-05T11:17:43.072Z,14.63
2022-12-05T11:20:18.430Z,15.63
2022-12-05T11:22:53.096Z,16.35
2022-12-05T11:25:28.262Z,13.25
2022-12-05T11:30:29.497Z,16.27
2022-12-05T11:33:19.531Z,13.65
2022-12-05T11:35:49.073Z,13.05
2022-12-05T11:38:19.232Z,11.38
2022-12-05T11:41:23.227Z,12.13
2022-12-05T11:44:00.500Z,14.88
2022-12-05T11:46:35.833Z,12.73
2022-12-05T11:49:29.370Z,12.52
2022-12-05T11:52:16.079Z,12.93
2022-12-05T11:55:06.741Z,11.98
2022-12-05T11:57:36.126Z,10.73
2022-12-05T12:00:05.612Z,11.05
2022-12-05T12:03:09.134Z,11.45
2022-12-05T12:05:59.589Z,9.40
2022-12-05T12:08:30.669Z,11.52
2022-12-05T12:11:03.065Z,12.25
2022-12-05T12:13:44.007Z,11.07
2022-12-05T12:16:34.966Z,13.45
2022-12-05T12:19:12.988Z,12.85
2022-12-05T12:21:39.366Z,14.05
2022-12-05T12:24:18.028Z,12.70
2022-12-05T12:27:16.731Z,13.00
2022-12-05T12:30:15.543Z,12.00
2022-12-05T12:33:11.604Z,11.85
2022-12-05T12:36:16.985Z,10.90
2022-12-05T12:38:48.217Z,12.83
2022-12-05T12:41:33.122Z,11.65
2022-12-05T12:44:24.397Z,12.73
2022-12-05T12:46:55.347Z,12.32
2022-12-05T12:49:32.312Z,12.20
2022-12-05T12:52:13.784Z,11.65
2022-12-05T12:55:15.218Z,12.48
2022-12-05T12:58:12.779Z,11.77
2022-12-05T13:01:04.034Z,12.35
2022-12-05T13:03:51.364Z,11.48
2022-12-05T13:06:28.851Z,12.30
2022-12-05T13:09:01.296Z,12.27
2022-12-05T13:11:33.894Z,12.35
2022-12-05T13:14:02.240Z,12.73
2022-12-05T13:16:34.973Z,12.30
2022-12-05T13:19:02.663Z,14.00
2022-12-05T13:21:30.029Z,13.27
2022-12-05T13:24:03.656Z,13.25
2022-12-05T13:26:32.836Z,13.18
2022-12-05T13:29:04.585Z,14.73
2022-12-05T13:31:42.603Z,13.40
2022-12-05T13:34:29.256Z,13.75
2022-12-05T13:37:19.474Z,12.43
2022-12-05T13:40:13.514Z,13.20
2022-12-05T13:42:40.455Z,14.52
2022-12-05T13:45:15.642Z,12.82
2022-12-05T13:50:31.545Z,12.90
2022-12-05T13:53:05.107Z,13.70
2022-12-05T13:55:37.701Z,12.30
2022-12-05T13:58:24.075Z,12.25
2022-12-05T14:00:52.253Z,9.32
2022-12-05T14:03:24.427Z,10.55
2022-12-05T14:05:53.413Z,11.52
2022-12-05T14:08:32.025Z,12.57
2022-12-05T14:10:58.409Z,11.13
2022-12-05T14:13:25.379Z,11.45
2022-12-05T14:16:15.141Z,11.63
2022-12-05T14:18:52.618Z,11.32
2022-12-05T14:21:53.953Z,11.07
2022-12-05T14:24:31.944Z,12.25
2022-12-05T14:27:20.110Z,11.60
2022-12-05T14:30:15.340Z,12.50
2022-12-05T14:32:42.723Z,13.23
2022-12-05T14:35:31.044Z,11.60
2022-12-05T14:38:02.654Z,12.65
2022-12-05T14:40:35.712Z,11.40
2022-12-05T14:43:22.389Z,12.50
2022-12-05T14:45:51.885Z,11.55
2022-12-05T14:48:18.294Z,11.77
2022-12-05T14:50:52.779Z,12.15
2022-12-05T14:53:30.969Z,14.50
2022-12-05T14:56:00.458Z,13.70
2022-12-05T14:58:45.488Z,13.18
2022-12-05T15:01:30.425Z,12.43
2022-12-05T15:04:03.776Z,10.20
2022-12-05T15:06:33.399Z,12.70
2022-12-05T15:09:35.600Z,11.07
2022-12-05T15:11:52.189Z,11.18
2022-12-05T15:14:22.357Z,10.65
2022-12-05T15:16:52.528Z,10.48
2022-12-05T15:19:37.602Z,13.70
2022-12-05T15:22:07.595Z,13.32
2022-12-05T15:24:38.894Z,14.32
2022-12-05T15:27:11.573Z,12.50
2022-12-05T15:29:39.980Z,13.88
2022-12-05T15:32:17.560Z,14.80
2022-12-05T15:35:06.589Z,13.05
2022-12-05T15:37:57.499Z,12.93
2022-12-05T15:40:26.123Z,17.15
2022-12-05T15:42:53.576Z,14.07
2022-12-05T15:45:28.426Z,11.82
2022-12-05T15:47:57.297Z,12.32
2022-12-05T15:50:40.676Z,12.07
2022-12-05T15:53:20.193Z,13.98
2022-12-05T15:56:01.609Z,13.45
2022-12-05T15:58:40.070Z,13.98
2022-12-05T16:01:39.835Z,12.88
2022-12-05T16:04:46.630Z,15.80
2022-12-05T16:07:15.051Z,13.00
2022-12-05T16:09:44.284Z,13.55
2022-12-05T16:12:22.646Z,14.55
2022-12-05T16:15:00.098Z,16.00
2022-12-05T16:17:29.811Z,13.70
2022-12-05T16:20:21.942Z,15.52
2022-12-05T16:23:00.420Z,17.65
2022-12-05T16:25:30.476Z,15.63
2022-12-05T16:28:13.731Z,16.40
2022-12-05T16:30:40.179Z,17.70
2022-12-05T16:33:13.772Z,17.48
2022-12-05T16:35:41.399Z,16.08
2022-12-05T16:38:10.860Z,15.63
2022-12-05T16:40:39.634Z,16.23
2022-12-05T16:43:19.270Z,16.20
2022-12-05T16:45:46.919Z,15.15
2022-12-05T16:48:34.209Z,15.27
2022-12-05T16:51:28.544Z,15.00
2022-12-05T16:53:56.271Z,14.90
2022-12-05T16:56:24.512Z,14.15
2022-12-05T16:58:51.583Z,13.95
2022-12-05T17:01:23.935Z,14.48
2022-12-05T17:03:51.323Z,14.20
2022-12-05T17:06:26.988Z,14.10
2022-12-05T17:08:54.562Z,14.07
2022-12-05T17:11:27.724Z,14.77
2022-12-05T17:13:55.879Z,12.77
2022-12-05T17:16:22.948Z,18.55
2022-12-05T17:18:49.791Z,16.75
2022-12-05T17:21:19.890Z,15.60
2022-12-05T17:23:48.035Z,14.63
2022-12-05T17:26:17.056Z,14.77
2022-12-05T17:28:43.729Z,13.88
2022-12-05T17:31:14.691Z,13.93
2022-12-05T17:33:41.271Z,15.48
2022-12-05T17:36:08.046Z,12.93
2022-12-05T17:38:34.420Z,15.38
2022-12-05T17:41:05.461Z,15.93
2022-12-05T17:43:33.618Z,15.10
2022-12-05T17:46:00.928Z,15.75
2022-12-05T17:48:27.592Z,15.20
2022-12-05T17:50:54.731Z,14.05
2022-12-05T17:53:21.909Z,13.00
2022-12-05T17:55:48.738Z,13.10
2022-12-05T17:58:16.049Z,16.42
2022-12-05T18:00:44.303Z,15.93
2022-12-05T18:03:15.250Z,19.80
2022-12-05T18:05:41.797Z,20.55
2022-12-05T18:08:09.153Z,23.75
2022-12-05T18:10:35.759Z,23.50
2022-12-05T18:13:02.168Z,20.90
2022-12-05T18:15:28.617Z,23.27
2022-12-05T18:17:55.571Z,21.45
2022-12-05T18:20:22.026Z,21.23
2022-12-05T18:22:48.732Z,20.77
2022-12-05T18:25:15.206Z,18.60
2022-12-05T18:27:41.656Z,23.63
2022-12-05T18:30:08.723Z,26.38
2022-12-05T18:32:35.282Z,26.02
2022-12-05T18:35:04.694Z,24.55
2022-12-05T18:37:36.481Z,23.88
2022-12-05T18:40:08.084Z,24.52
2022-12-05T18:42:34.668Z,24.30
2022-12-05T18:45:02.172Z,24.95
2022-12-05T18:47:28.602Z,28.10
2022-12-05T18:49:55.268Z,24.10
2022-12-05T18:52:21.745Z,25.95
2022-12-05T18:55:02.945Z,23.30
2022-12-05T18:57:34.699Z,30.30
2022-12-05T19:00:01.968Z,27.83
2022-12-05T19:02:29.279Z,28.10
2022-12-05T19:04:56.106Z,25.70
2022-12-05T19:07:22.698Z,25.77
2022-12-05T19:09:49.262Z,26.40
2022-12-05T19:12:15.762Z,24.95
2022-12-05T19:14:42.215Z,24.20
2022-12-05T19:17:08.663Z,22.35
2022-12-05T19:19:35.107Z,22.20
2022-12-05T19:22:02.127Z,24.90
2022-12-05T19:24:28.702Z,22.10
2022-12-05T19:26:55.212Z,22.80
2022-12-05T19:29:21.670Z,22.92
2022-12-05T19:31:48.183Z,22.60
2022-12-05T19:34:14.706Z,25.25
2022-12-05T19:36:43.853Z,18.15
2022-12-05T19:39:21.111Z,21.65
2022-12-05T19:41:48.999Z,22.55
2022-12-05T19:44:15.553Z,24.15
2022-12-05T19:46:42.299Z,22.05
2022-12-05T19:49:12.413Z,21.15
2022-12-05T19:51:39.283Z,19.90
2022-12-05T19:54:07.505Z,20.75
2022-12-05T19:56:35.537Z,20.98
2022-12-05T19:59:02.582Z,21.80
2022-12-05T20:01:34.815Z,22.58
2022-12-05T20:04:04.039Z,19.73
2022-12-05T20:06:35.902Z,21.35
2022-12-05T20:09:02.995Z,23.52
2022-12-05T20:11:29.860Z,20.75
2022-12-05T20:13:58.643Z,21.42
2022-12-05T20:16:27.127Z,23.33
2022-12-05T20:18:58.911Z,22.08
2022-12-05T20:21:27.896Z,21.88
2022-12-05T20:23:54.705Z,22.05
2022-12-05T20:26:27.404Z,21.77
2022-12-05T20:28:56.433Z,22.38
2022-12-05T20:31:25.476Z,19.80
2022-12-05T20:33:53.289Z,22.15
2022-12-05T20:36:23.021Z,20.35
2022-12-05T20:38:55.132Z,20.75
2022-12-05T20:41:21.657Z,23.70
2022-12-05T20:43:52.622Z,20.40
2022-12-05T20:46:20.601Z,22.65
2022-12-05T20:48:47.896Z,23.27
2022-12-05T20:51:17.067Z,23.02
2022-12-05T20:53:44.599Z,19.30
2022-12-05T20:56:12.396Z,19.85
2022-12-05T20:58:39.835Z,18.35
2022-12-05T21:01:09.629Z,18.23
2022-12-05T21:03:39.052Z,20.92
2022-12-05T21:06:11.544Z,19.15
2022-12-05T21:08:38.636Z,20.98
2022-12-05T21:11:05.546Z,19.77
2022-12-05T21:13:32.305Z,25.67
2022-12-05T21:16:03.028Z,21.00
2022-12-05T21:18:30.443Z,21.80
2022-12-05T21:21:05.477Z,18.27
2022-12-05T21:23:31.925Z,19.85
2022-12-05T21:26:04.166Z,21.55
2022-12-05T21:28:31.896Z,21.08
2022-12-05T21:31:07.005Z,20.10
2022-12-05T21:35:59.949Z,17.13
2022-12-05T21:38:26.391Z,18.58
2022-12-05T21:40:52.769Z,19.27
2022-12-05T21:43:19.189Z,21.65
2022-12-05T21:45:52.933Z,24.98
2022-12-05T21:48:23.789Z,26.73
2022-12-05T21:50:50.553Z,21.45
2022-12-05T21:53:17.846Z,21.60
2022-12-05T21:55:44.308Z,22.30
2022-12-05T21:58:11.322Z,24.02
2022-12-05T22:00:38.880Z,23.63
2022-12-05T22:03:05.916Z,23.35
2022-12-05T22:05:33.365Z,24.67
2022-12-05T22:08:04.848Z,23.52
2022-12-05T22:10:34.351Z,23.20
2022-12-05T22:13:00.797Z,23.65
2022-12-05T22:15:27.200Z,23.80
2022-12-05T22:17:53.535Z,22.85
2022-12-05T22:20:19.985Z,26.83
2022-12-05T22:22:46.445Z,21.77
2022-12-05T22:25:12.866Z,20.90
2022-12-05T22:27:39.281Z,24.08
2022-12-05T22:30:06.508Z,27.83
2022-12-05T22:32:33.094Z,31.45
2022-12-05T22:35:03.664Z,24.40
2022-12-05T22:37:30.749Z,24.52
2022-12-05T22:39:57.735Z,21.63
2022-12-05T22:42:26.762Z,21.15
2022-12-05T22:44:53.448Z,24.42
2022-12-05T22:47:19.860Z,19.83
2022-12-05T22:49:46.237Z,22.63
2022-12-05T22:52:12.665Z,25.25
2022-12-05T22:54:39.162Z,24.00
2022-12-05T22:57:05.716Z,23.25
2022-12-05T22:59:32.218Z,26.40
2022-12-05T23:01:58.700Z,24.08
2022-12-05T23:04:25.264Z,23.83
2022-12-05T23:06:51.904Z,25.88
2022-12-05T23:09:18.465Z,24.58
2022-12-05T23:11:44.903Z,23.30
2022-12-05T23:14:11.620Z,22.35
2022-12-05T23:16:38.286Z,27.75
2022-12-05T23:19:05.693Z,25.52
2022-12-05T23:21:40.032Z,21.83
2022-12-05T23:24:09.681Z,23.30
2022-12-05T23:26:39.453Z,27.10
2022-12-05T23:29:06.473Z,22.80
2022-12-05T23:31:33.447Z,27.48
2022-12-05T23:34:03.560Z,23.73
2022-12-05T23:36:32.401Z,24.20
2022-12-05T23:38:59.033Z,23.15
2022-12-05T23:41:26.296Z,21.88
2022-12-05T23:43:53.532Z,20.15
2022-12-05T23:46:22.853Z,23.48
2022-12-05T23:48:50.030Z,22.35
2022-12-05T23:51:24.907Z,21.58
2022-12-05T23:53:56.907Z,24.10
2022-12-05T23:56:26.074Z,23.27
2022-12-05T23:58:53.807Z,21.92
